Terminal Aerodrome Forecast
Issued by NWS

Home | Current Version | Previous Version | Text Only | Print | Product List | Glossary On
Versions: 1 2 3 4 5 6 7 8 9 10 11 12 13 14 15 16
000
FTUS41 KPBZ 040520
TAFAGC
TAF
KAGC 040520Z 0406/0506 30004KT P6SM SCT050
     FM040700 30004KT 3SM BR SCT050 BKN250
      TEMPO 0410/0413 1 1/2SM BR
     FM041400 10003KT P6SM SCT040=

USA.gov is the U.S. government's official web portal to all federal, state and local government web resources and services.